Latest Weather Observations for Jervis Bay Airfield

IDN60901

Issued at 4:02 pm EST Sunday 11 April 2021 (issued every 10 minutes, with the page automatically refreshed every 10 minutes)

About weather observations | Map of Canberra area stations | Latest observations for Canberra area | Other Formats
Station Details ID: 068264 Name: JERVIS BAY AIRFIELD AWS Lat: -35.14 Lon: 150.70 Height: 57.18 m
Data from the previous 72 hours. | See also: Recent months at Jervis Bay Airfield
Date/Time
EST
Temp
°C
App
Temp
°C
Dew
Point
°C
Rel
Hum
%
Delta-T
°C
Wind Press
QNH
hPa
Press
MSL
hPa
Rain since
9am
mm
Dir  Spd
km/h
Gust
km/h
Spd
kts
Gust
kts
11/04:00pm 17.3 12.0 3.2 39 6.5 W 20 32 11 17 1009.3 1009.2 0.0
11/03:30pm 17.4 11.9 1.8 35 7.0 WSW 20 33 11 18 1009.0 1008.8 0.0
11/03:00pm 17.5 12.1 1.1 33 7.3 W 19 35 10 19 1008.7 1008.5 0.0
11/02:30pm 18.4 12.8 1.4 32 7.6 W 20 30 11 16 1008.5 1008.3 0.0
11/02:00pm 17.6 11.5 0.3 31 7.6 WSW 22 33 12 18 1008.3 1008.1 0.0
11/01:30pm 17.6 11.8 -0.2 30 7.7 SW 20 33 11 18 1008.1 1007.9 0.0
11/01:00pm 17.3 11.7 0.9 33 7.2 SW 20 32 11 17 1008.1 1007.9 0.0
11/12:30pm 16.9 11.1 0.1 32 7.3 SW 20 30 11 16 1008.3 1008.1 0.0
11/12:00pm 17.0 11.4 1.0 34 7.1 WSW 20 33 11 18 1008.5 1008.3 0.0
11/11:30am 17.1 11.8 1.9 36 6.8 WSW 19 26 10 14 1008.7 1008.5 0.0
11/11:00am 16.6 11.4 3.3 41 6.1 WSW 20 32 11 17 1008.9 1008.7 0.0
11/10:30am 16.1 10.7 2.5 40 6.1 WSW 20 28 11 15 1009.0 1008.8 0.0
11/10:00am 15.5 9.7 2.3 41 5.9 W 22 33 12 18 1009.0 1008.8 0.0
11/09:30am 14.7 8.6 2.9 45 5.3 W 24 33 13 18 1008.9 1008.7 0.0
11/09:00am 14.4 8.5 4.1 50 4.7 W 24 39 13 21 1008.7 1008.5 0.0
11/08:30am 13.9 8.4 3.9 51 4.6 W 22 32 12 17 1008.4 1008.2 0.0
11/08:00am 14.3 9.3 4.6 52 4.5 W 20 26 11 14 1008.0 1007.8 0.0
11/07:30am 13.4 8.0 4.3 54 4.2 W 22 35 12 19 1007.5 1007.3 0.0
11/07:00am 13.2 8.3 5.1 58 3.8 W 20 32 11 17 1007.0 1006.8 0.0
11/06:30am 13.0 8.8 5.7 61 3.4 W 17 28 9 15 1006.7 1006.5 0.0
11/06:00am 13.1 9.0 6.2 63 3.3 WNW 17 26 9 14 1006.3 1006.1 0.0
11/05:30am 13.7 10.1 6.6 62 3.4 W 15 26 8 14 1006.3 1006.1 0.0
11/05:00am 14.2 10.0 7.5 64 3.3 W 19 32 10 17 1005.7 1005.5 0.0
11/04:30am 14.0 9.9 8.0 67 3.0 W 19 33 10 18 1005.5 1005.3 0.0
11/04:00am 14.0 11.1 8.2 68 2.9 W 13 20 7 11 1005.4 1005.2 0.0
11/03:30am 14.0 11.2 8.6 70 2.7 NW 13 20 7 11 1005.1 1004.9 0.0
11/03:00am 14.4 11.6 8.6 68 2.9 WNW 13 20 7 11 1005.2 1005.0 0.0
11/02:30am 14.6 10.6 8.3 66 3.2 W 19 26 10 14 1005.5 1005.3 0.0
11/02:00am 15.1 10.9 8.3 64 3.4 W 20 32 11 17 1005.7 1005.5 0.0
11/01:30am 14.9 11.7 8.6 66 3.2 WNW 15 22 8 12 1006.0 1005.8 0.0
11/01:00am 14.9 11.7 8.4 65 3.3 W 15 26 8 14 1006.4 1006.2 0.0
11/12:30am 14.1 11.2 8.3 68 2.9 WNW 13 15 7 8 1006.4 1006.2 0.0
11/12:00am 14.9 12.7 7.9 63 3.5 W 9 15 5 8 1006.5 1006.3 0.0
 
Date/Time
EST
Temp
°C
App
Temp
°C
Dew
Point
°C
Rel
Hum
%
Delta-T
°C
Wind Press
QNH
hPa
Press
MSL
hPa
Rain since
9am
mm
Dir  Spd
km/h
Gust
km/h
Spd
kts
Gust
kts
10/11:30pm 15.4 11.4 8.4 63 3.5 WNW 19 26 10 14 1006.5 1006.3 0.0
10/11:00pm 15.3 11.0 7.8 61 3.8 W 20 32 11 17 1006.7 1006.5 0.0
10/10:30pm 15.2 10.8 7.5 60 3.8 W 20 28 11 15 1006.8 1006.6 0.0
10/10:00pm 15.4 11.0 7.4 59 4.0 WNW 20 33 11 18 1006.7 1006.5 0.0
10/09:30pm 15.3 10.8 7.1 58 4.0 W 20 26 11 14 1006.8 1006.6 0.0
10/09:00pm 15.1 11.2 7.2 59 3.9 W 17 24 9 13 1006.8 1006.6 0.0
10/08:30pm 15.3 11.0 7.1 58 4.0 W 19 24 10 13 1006.6 1006.4 0.0
10/08:00pm 15.6 11.7 7.1 57 4.2 W 17 26 9 14 1006.6 1006.4 0.0
10/07:30pm 16.1 11.2 6.8 54 4.6 WNW 22 32 12 17 1006.3 1006.1 0.0
10/07:00pm 16.4 11.9 6.8 53 4.8 W 20 30 11 16 1005.9 1005.7 0.0
10/06:30pm 16.7 11.9 7.4 54 4.7 WNW 22 33 12 18 1005.5 1005.3 0.0
10/06:00pm 17.1 11.9 7.2 52 5.0 WNW 24 39 13 21 1005.0 1004.8 0.0
10/05:30pm 17.7 12.9 7.2 50 5.3 WNW 22 39 12 21 1004.6 1004.4 0.0
10/05:00pm 18.6 13.4 7.1 47 5.8 WNW 24 33 13 18 1004.1 1003.9 0.0
10/04:30pm 19.6 15.3 8.0 47 6.0 WNW 20 30 11 16 1003.9 1003.7 0.0
10/04:00pm 20.0 15.0 8.0 46 6.2 WNW 24 33 13 18 1003.9 1003.7 0.0
10/03:30pm 20.2 15.2 7.9 45 6.4 WNW 24 37 13 20 1003.7 1003.5 0.0
10/03:00pm 21.1 16.4 7.7 42 7.0 WNW 22 32 12 17 1003.3 1003.1 0.0
10/02:30pm 21.5 19.0 9.7 47 6.4 WSW 13 20 7 11 1003.4 1003.2 0.0
10/02:00pm 21.0 18.5 8.0 43 6.8 SE 11 17 6 9 1003.2 1003.0 0.0
10/01:30pm 21.1 18.3 8.4 44 6.7 W 13 24 7 13 1003.2 1003.0 0.0
10/01:00pm 20.4 16.9 7.4 43 6.7 SSW 15 20 8 11 1003.5 1003.3 0.0
10/12:30pm 20.1 17.0 8.8 48 5.9 SSW 15 20 8 11 1003.8 1003.6 0.0
10/12:00pm 19.6 15.9 8.0 47 6.0 S 17 22 9 12 1004.0 1003.8 0.0
10/11:30am 19.3 15.0 7.1 45 6.2 WNW 19 30 10 16 1004.7 1004.5 0.0
10/11:00am 18.6 14.7 7.1 47 5.8 WSW 17 26 9 14 1004.9 1004.7 0.0
10/10:30am 17.8 13.9 8.6 55 4.8 W 19 26 10 14 1005.3 1005.1 0.0
10/10:00am 17.5 13.7 8.9 57 4.5 W 19 30 10 16 1005.5 1005.3 0.0
10/09:30am 17.1 13.4 8.0 55 4.6 W 17 26 9 14 1005.5 1005.3 0.0
10/09:00am 16.2 13.7 9.6 65 3.5 W 13 20 7 11 1005.9 1005.7 0.4
10/08:30am 15.1 13.2 10.5 74 2.4 WNW 11 17 6 9 1006.0 1005.8 0.4
10/08:00am 14.8 14.1 12.1 84 1.5 WNW 7 9 4 5 1005.9 1005.7 0.4
10/07:30am 14.6 13.7 12.6 88 1.1 NW 9 13 5 7 1005.8 1005.6 0.4
10/07:00am 14.5 13.9 12.4 87 1.1 WNW 7 11 4 6 1005.8 1005.6 0.4
10/06:30am 14.7 13.9 12.9 89 1.0 NNW 9 11 5 6 1005.7 1005.5 0.4
10/06:00am 15.0 14.4 13.5 91 0.8 NW 9 13 5 7 1005.6 1005.4 0.4
10/05:30am 14.8 14.3 13.8 94 0.6 WNW 9 13 5 7 1005.9 1005.7 0.4
10/05:00am 14.0 14.1 12.7 92 0.7 W 4 9 2 5 1005.3 1005.1 0.4
10/04:30am 15.1 14.6 12.2 83 1.6 SW 6 9 3 5 1005.5 1005.3 0.4
10/04:00am 16.4 15.6 12.8 79 2.0 WSW 9 13 5 7 1005.7 1005.5 0.4
10/03:30am 16.5 15.3 12.7 78 2.1 SSW 11 15 6 8 1005.4 1005.2 0.4
10/03:00am 16.7 15.1 12.7 77 2.2 S 13 19 7 10 1005.3 1005.1 0.4
10/02:30am 16.6 15.0 12.8 78 2.1 SSW 13 17 7 9 1005.7 1005.5 0.4
10/02:00am 17.2 15.6 12.9 76 2.4 SSW 13 17 7 9 1006.0 1005.8 0.4
10/01:30am 17.0 15.5 13.1 78 2.2 SSW 13 17 7 9 1006.0 1005.8 0.4
10/01:00am 16.9 15.4 13.2 79 2.1 S 13 20 7 11 1006.3 1006.1 0.4
10/12:30am 17.4 15.9 13.1 76 2.4 SSW 13 19 7 10 1006.6 1006.4 0.4
10/12:00am 17.7 16.7 13.4 76 2.4 SSW 11 17 6 9 1006.5 1006.3 0.4
 
Date/Time
EST
Temp
°C
App
Temp
°C
Dew
Point
°C
Rel
Hum
%
Delta-T
°C
Wind Press
QNH
hPa
Press
MSL
hPa
Rain since
9am
mm
Dir  Spd
km/h
Gust
km/h
Spd
kts
Gust
kts
09/11:30pm 17.8 16.4 13.5 76 2.4 S 13 17 7 9 1006.3 1006.1 0.4
09/11:00pm 17.9 15.7 13.4 75 2.6 S 17 20 9 11 1006.6 1006.4 0.4
09/10:30pm 18.3 16.2 13.6 74 2.7 S 17 22 9 12 1006.7 1006.5 0.4
09/10:00pm 18.4 17.0 13.5 73 2.8 S 13 19 7 10 1006.8 1006.6 0.4
09/09:30pm 18.5 17.3 14.0 75 2.6 SSW 13 19 7 10 1006.9 1006.7 0.4
09/09:00pm 18.8 16.9 14.1 74 2.7 S 17 20 9 11 1006.9 1006.7 0.4
09/08:30pm 18.9 17.4 13.1 69 3.3 SSW 13 19 7 10 1006.7 1006.5 0.4
09/08:00pm 18.9 17.2 13.5 71 3.1 S 15 22 8 12 1006.5 1006.3 0.4
09/07:30pm 18.9 16.1 13.3 70 3.2 SSW 20 26 11 14 1006.3 1006.1 0.4
09/07:00pm 18.9 16.5 13.7 72 3.0 S 19 24 10 13 1006.1 1005.9 0.4
09/06:30pm 18.9 16.1 14.2 74 2.7 S 22 30 12 16 1005.7 1005.5 0.4
09/06:00pm 18.8 16.1 14.5 76 2.5 S 22 28 12 15 1005.3 1005.1 0.4
09/05:30pm 18.9 16.6 14.6 76 2.5 S 20 26 11 14 1005.1 1004.9 0.4
09/05:00pm 19.0 16.3 14.7 76 2.5 SSW 22 35 12 19 1004.4 1004.2 0.4
09/04:30pm 19.3 15.5 14.6 74 2.7 S 28 37 15 20 1003.9 1003.7 0.4
09/04:00pm 19.2 15.8 15.7 80 2.1 SSW 28 35 15 19 1003.7 1003.5 0.4
09/03:38pm 19.5 16.3 16.3 82 1.9 S 28 46 15 25 1003.3 1003.1 0.4
09/03:30pm 19.5 16.5 16.7 84 1.7 S 28 46 15 25 1003.4 1003.2 0.4
09/03:29pm 19.5 15.6 16.5 83 1.8 S 32 46 17 25 1003.4 1003.2 0.4
09/03:04pm 20.1 15.7 17.5 85 1.6 S 37 52 20 28 1002.7 1002.5 0.4
09/03:00pm 20.3 15.9 17.5 84 1.7 S 37 52 20 28 1002.8 1002.6 0.4
09/02:50pm 20.4 16.0 17.6 84 1.7 S 37 54 20 29 1002.3 1002.1 0.4
09/02:33pm 21.8 17.1 18.6 82 2.0 SSE 41 65 22 35 1001.5 1001.3 0.4
09/02:30pm 22.3 18.5 18.9 81 2.2 SSE 37 54 20 29 1001.5 1001.3 0.4
09/02:26pm 22.6 19.5 18.8 79 2.4 SSE 33 52 18 28 1001.4 1001.2 0.4
09/02:11pm 24.9 22.5 13.8 50 6.5 WSW 19 43 10 23 1000.8 1000.7 0.4
09/02:00pm 27.1 26.6 13.8 44 7.9 NW 9 17 5 9 1000.5 1000.4 0.4
09/01:30pm 26.4 26.0 16.3 53 6.2 NE 13 17 7 9 1000.8 1000.7 0.4
09/01:00pm 26.3 27.9 18.2 61 5.2 N 7 15 4 8 1001.3 1001.1 0.4
09/12:30pm 25.9 25.2 14.4 49 6.9 WNW 11 15 6 8 1001.9 1001.7 0.4
09/12:00pm 24.3 24.3 18.0 68 4.0 WNW 15 26 8 14 1002.1 1001.9 0.4
09/11:30am 21.6 21.5 17.8 79 2.4 WNW 15 19 8 10 1002.8 1002.6 0.4
09/11:00am 21.1 21.9 17.3 79 2.3 W 9 13 5 7 1003.5 1003.3 0.4
09/10:30am 20.7 21.6 16.5 77 2.5 W 7 9 4 5 1003.6 1003.4 0.4
09/10:00am 20.3 20.0 16.5 79 2.3 WSW 13 19 7 10 1004.0 1003.8 0.2
09/09:30am 21.8 21.4 16.1 70 3.4 WNW 13 20 7 11 1003.6 1003.4 0.0
09/09:00am 21.8 21.0 16.1 70 3.5 NW 15 20 8 11 1003.8 1003.6 0.0
09/08:30am 21.5 21.3 15.8 70 3.4 NW 11 17 6 9 1003.9 1003.7 0.0
09/08:00am 20.4 19.6 15.2 72 3.1 N 13 17 7 9 1003.6 1003.4 0.0
09/07:30am 18.9 19.6 16.0 83 1.7 N 7 11 4 6 1003.8 1003.6 0.0
09/07:00am 17.9 19.6 15.3 85 1.5 CALM 0 0 0 0 1003.8 1003.6 0.0
09/06:30am 17.1 18.0 16.0 93 0.7 NNE 6 7 3 4 1003.5 1003.3 0.0
09/06:00am 17.2 17.8 15.9 92 0.8 NNE 7 9 4 5 1003.5 1003.3 0.0
09/05:30am 17.6 17.9 15.9 90 1.0 N 9 15 5 8 1003.5 1003.3 0.0
09/05:00am 17.7 18.1 16.2 91 0.9 NE 9 11 5 6 1003.5 1003.3 0.0
09/04:30am 18.4 18.8 16.4 88 1.2 NNE 9 11 5 6 1003.8 1003.6 0.0
09/04:00am 17.9 18.2 16.9 94 0.6 NNE 11 15 6 8 1004.0 1003.8 0.0
09/03:30am 17.7 17.7 17.2 97 0.3 NNE 13 17 7 9 1004.4 1004.2 0.0
09/03:00am 18.0 18.1 17.4 96 0.4 NE 13 15 7 8 1004.6 1004.4 0.0
09/02:30am 18.0 18.7 17.0 94 0.6 NNE 9 11 5 6 1004.9 1004.7 0.0
09/02:00am 18.2 19.3 17.2 94 0.6 NNE 7 9 4 5 1005.4 1005.2 0.0
09/01:30am 18.8 19.2 17.3 91 0.9 N 11 17 6 9 1005.9 1005.7 0.0
09/01:00am 19.3 20.0 18.0 92 0.8 N 11 17 6 9 1006.3 1006.1 0.0
09/12:30am 18.9 20.0 17.9 94 0.6 NNE 9 13 5 7 1006.6 1006.4 0.0
09/12:00am 18.4 19.2 18.1 98 0.2 N 11 13 6 7 1006.9 1006.7 0.0
 
Date/Time
EST
Temp
°C
App
Temp
°C
Dew
Point
°C
Rel
Hum
%
Delta-T
°C
Wind Press
QNH
hPa
Press
MSL
hPa
Rain since
9am
mm
Dir  Spd
km/h
Gust
km/h
Spd
kts
Gust
kts
08/11:30pm 18.2 18.9 17.9 98 0.2 N 11 13 6 7 1007.5 1007.3 0.0
08/11:00pm 18.9 19.5 18.6 98 0.2 N 13 15 7 8 1007.8 1007.6 0.0
08/10:30pm 19.9 20.6 19.6 98 0.2 NNE 15 22 8 12 1008.0 1007.8 0.0
08/10:00pm 20.1 19.9 19.4 96 0.4 NNE 19 24 10 13 1008.4 1008.2 0.0
08/09:30pm 20.3 20.1 19.3 94 0.6 NNE 19 28 10 15 1008.6 1008.4 0.0
08/09:00pm 20.4 19.9 19.1 92 0.8 NNE 20 30 11 16 1008.7 1008.5 0.0
08/08:30pm 20.4 20.1 19.2 93 0.8 NNE 19 24 10 13 1008.9 1008.7 0.0
08/08:00pm 20.4 20.4 19.7 96 0.4 NNE 19 26 10 14 1009.1 1008.9 0.0
08/07:30pm 20.5 20.5 19.8 96 0.4 NNE 19 24 10 13 1009.0 1008.8 0.0
08/07:00pm 20.6 20.6 19.8 95 0.5 NNE 19 24 10 13 1009.0 1008.8 0.0
08/06:30pm 20.4 20.7 19.6 95 0.5 NE 17 22 9 12 1008.7 1008.5 0.0
08/06:00pm 20.6 20.4 19.4 93 0.8 NE 19 24 10 13 1008.6 1008.4 0.0
08/05:30pm 20.9 20.6 19.2 90 1.1 NNE 19 26 10 14 1008.4 1008.2 0.0
08/05:00pm 21.6 21.2 19.3 87 1.5 NNE 20 28 11 15 1008.3 1008.1 0.0
08/04:30pm 22.2 21.8 19.4 84 1.8 NNE 20 30 11 16 1008.5 1008.3 0.0

Latest Capital City Observations: Canberra | Sydney | Melbourne | Brisbane | Adelaide | Perth | Hobart | Darwin

Other formats

Comma delimited format used in spreadsheet applications
http://www.bom.gov.au/fwo/IDN60903/IDN60903.94751.axf

JavaScript Object Notation format (JSON) in row-major order
http://www.bom.gov.au/fwo/IDN60903/IDN60903.94751.json

Data quality

Most of these data are generated automatically and are frequently updated. Quality checks on data are not normally performed. It is possible for incorrect values to appear. Refer to information at About Latest Weather Observations and please check the disclaimer before using these data.